createdAt,value
2018-02-12T00:00:08.010Z,3.48
2018-02-12T00:01:08.306Z,3.48
2018-02-12T00:02:08.263Z,3.87
2018-02-12T00:03:10.258Z,3.67
2018-02-12T00:04:08.154Z,3.48
2018-02-12T00:05:08.111Z,3.58
2018-02-12T00:06:11.095Z,3.58
2018-02-12T00:07:08.100Z,3.58
2018-02-12T00:08:08.259Z,3.48
2018-02-12T00:09:08.194Z,3.48
2018-02-12T00:10:08.309Z,3.48
2018-02-12T00:11:08.204Z,3.48
2018-02-12T00:12:08.170Z,3.77
2018-02-12T00:13:09.301Z,3.58
2018-02-12T00:14:10.705Z,3.48
2018-02-12T00:15:07.993Z,3.58
2018-02-12T00:16:08.133Z,3.77
2018-02-12T00:17:08.181Z,3.58
2018-02-12T00:18:08.123Z,3.67
2018-02-12T00:19:08.263Z,3.48
2018-02-12T00:20:08.250Z,3.58
2018-02-12T00:21:08.246Z,3.48
2018-02-12T00:22:09.746Z,3.58
2018-02-12T00:23:08.080Z,3.48
2018-02-12T00:24:09.791Z,3.48
2018-02-12T00:25:08.190Z,3.38
2018-02-12T00:26:08.258Z,3.58
2018-02-12T00:27:09.776Z,3.48
2018-02-12T00:28:08.128Z,3.58
2018-02-12T00:29:08.059Z,3.38
2018-02-12T00:30:08.108Z,3.48
2018-02-12T00:31:09.764Z,3.48
2018-02-12T00:32:08.130Z,3.48
2018-02-12T00:33:08.008Z,3.48
2018-02-12T00:34:10.780Z,3.28
2018-02-12T00:35:08.078Z,3.48
2018-02-12T00:36:08.204Z,3.28
2018-02-12T00:37:08.172Z,3.38
2018-02-12T00:38:09.134Z,3.38
2018-02-12T00:39:07.988Z,3.38
2018-02-12T00:40:08.088Z,3.58
2018-02-12T00:41:08.173Z,3.38
2018-02-12T00:42:08.115Z,3.48
2018-02-12T00:43:07.940Z,3.28
2018-02-12T00:44:10.706Z,3.38
2018-02-12T00:45:08.043Z,3.48
2018-02-12T00:46:08.126Z,3.38
2018-02-12T00:47:08.080Z,3.48
2018-02-12T00:48:07.982Z,3.48
2018-02-12T00:50:07.963Z,3.19
2018-02-12T00:51:08.130Z,3.48
2018-02-12T00:52:09.681Z,3.48
2018-02-12T00:54:08.122Z,3.38
2018-02-12T00:55:09.635Z,3.38
2018-02-12T00:56:08.090Z,3.38
2018-02-12T00:57:08.175Z,3.28
2018-02-12T00:58:08.054Z,3.19
2018-02-12T00:59:08.029Z,3.38
2018-02-12T01:00:08.042Z,3.67
2018-02-12T01:01:08.263Z,3.48
2018-02-12T01:02:09.731Z,3.58
2018-02-12T01:03:08.099Z,3.48
2018-02-12T01:04:08.053Z,3.28
2018-02-12T01:05:07.967Z,3.48
2018-02-12T01:06:07.987Z,3.28
2018-02-12T01:07:07.936Z,3.28
2018-02-12T01:08:07.944Z,3.38
2018-02-12T01:09:08.057Z,3.38
2018-02-12T01:10:07.975Z,3.28
2018-02-12T01:11:08.088Z,3.28
2018-02-12T01:12:10.357Z,3.38
2018-02-12T01:13:07.993Z,3.28
2018-02-12T01:14:09.714Z,3.19
2018-02-12T01:15:07.935Z,3.28
2018-02-12T01:16:08.074Z,3.38
2018-02-12T01:17:09.540Z,3.19
2018-02-12T01:18:07.991Z,3.38
2018-02-12T01:19:07.890Z,3.38
2018-02-12T01:20:08.003Z,3.19
2018-02-12T01:21:07.806Z,3.38
2018-02-12T01:22:07.928Z,3.38
2018-02-12T01:23:09.710Z,3.28
2018-02-12T01:25:07.920Z,3.19
2018-02-12T01:26:07.999Z,3.48
2018-02-12T01:27:07.996Z,3.19
2018-02-12T01:28:07.881Z,3.19
2018-02-12T01:29:07.915Z,3.48
2018-02-12T01:31:07.967Z,3.29
2018-02-12T01:32:07.771Z,3.29
2018-02-12T01:33:09.740Z,3.09
2018-02-12T01:34:07.871Z,3.19
2018-02-12T01:35:08.026Z,3.28
2018-02-12T01:36:07.983Z,3.38
2018-02-12T01:37:08.070Z,3.19
2018-02-12T01:38:07.885Z,3.38
2018-02-12T01:39:07.960Z,3.09
2018-02-12T01:40:07.874Z,3.48
2018-02-12T01:41:07.920Z,3.38
2018-02-12T01:42:09.803Z,3.38
2018-02-12T01:43:07.986Z,3.19
2018-02-12T01:44:09.785Z,3.09
2018-02-12T01:45:10.334Z,3.19
2018-02-12T01:46:07.935Z,3.19
2018-02-12T01:47:08.478Z,3.29
2018-02-12T01:48:07.935Z,3.28
2018-02-12T01:49:07.919Z,3.38
2018-02-12T01:50:07.881Z,3.19
2018-02-12T01:51:07.791Z,3.38
2018-02-12T01:52:07.824Z,3.19
2018-02-12T01:53:07.731Z,3.28
2018-02-12T01:54:09.641Z,3.58
2018-02-12T01:55:07.957Z,3.48
2018-02-12T01:56:07.886Z,3.77
2018-02-12T01:57:07.930Z,3.48
2018-02-12T01:58:09.793Z,3.58
2018-02-12T01:59:07.892Z,3.48
2018-02-12T02:00:09.687Z,3.38
2018-02-12T02:01:08.925Z,3.67
2018-02-12T02:02:09.775Z,3.48
2018-02-12T02:03:07.809Z,3.19
2018-02-12T02:04:09.573Z,3.28
2018-02-12T02:05:07.955Z,3.58
2018-02-12T02:06:07.874Z,3.58
2018-02-12T02:07:07.925Z,3.48
2018-02-12T02:08:07.958Z,3.58
2018-02-12T02:09:07.956Z,3.58
2018-02-12T02:10:09.690Z,3.77
2018-02-12T02:11:07.934Z,3.48
2018-02-12T02:12:07.963Z,3.58
2018-02-12T02:13:07.802Z,3.48
2018-02-12T02:14:07.794Z,3.58
2018-02-12T02:15:07.814Z,3.77
2018-02-12T02:16:10.832Z,3.67
2018-02-12T02:17:09.743Z,3.67
2018-02-12T02:18:09.841Z,3.67
2018-02-12T02:19:07.704Z,3.86
2018-02-12T02:20:09.727Z,3.67
2018-02-12T02:21:09.680Z,3.77
2018-02-12T02:22:07.819Z,3.87
2018-02-12T02:23:07.721Z,3.48
2018-02-12T02:24:10.845Z,3.48
2018-02-12T02:25:07.747Z,3.48
2018-02-12T02:26:07.821Z,3.77
2018-02-12T02:27:07.668Z,3.58
2018-02-12T02:28:07.815Z,3.67
2018-02-12T02:29:07.673Z,3.67
2018-02-12T02:30:07.821Z,3.48
2018-02-12T02:31:07.754Z,3.87
2018-02-12T02:32:07.733Z,3.87
2018-02-12T02:33:07.854Z,3.67
2018-02-12T02:34:07.836Z,3.67
2018-02-12T02:35:07.829Z,3.48
2018-02-12T02:36:07.778Z,3.58
2018-02-12T02:37:07.797Z,3.58
2018-02-12T02:38:07.823Z,3.67
2018-02-12T02:39:07.664Z,3.48
2018-02-12T02:40:09.809Z,3.48
2018-02-12T02:41:07.744Z,3.48
2018-02-12T02:43:07.583Z,3.77
2018-02-12T02:44:07.764Z,3.77
2018-02-12T02:45:07.762Z,3.77
2018-02-12T02:46:07.725Z,3.58
2018-02-12T02:47:07.691Z,3.86
2018-02-12T02:48:07.653Z,3.87
2018-02-12T02:49:07.698Z,3.87
2018-02-12T02:52:07.706Z,3.67
2018-02-12T02:53:07.818Z,3.48
2018-02-12T02:54:07.714Z,3.77
2018-02-12T02:55:07.637Z,3.86
2018-02-12T02:56:07.752Z,3.86
2018-02-12T02:57:07.640Z,4.06
2018-02-12T02:58:07.769Z,3.96
2018-02-12T02:59:07.829Z,4.35
2018-02-12T03:00:07.662Z,4.25
2018-02-12T03:01:09.265Z,3.96
2018-02-12T03:02:07.695Z,3.67
2018-02-12T03:03:09.175Z,3.67
2018-02-12T03:04:07.809Z,3.58
2018-02-12T03:05:07.547Z,3.48
2018-02-12T03:06:08.186Z,3.58
2018-02-12T03:07:07.530Z,3.38
2018-02-12T03:08:07.629Z,3.19
2018-02-12T03:09:07.644Z,3.29
2018-02-12T03:10:07.642Z,3.19
2018-02-12T03:11:09.273Z,3.19
2018-02-12T03:12:07.661Z,3.29
2018-02-12T03:15:07.768Z,3.19
2018-02-12T03:16:07.600Z,3.39
2018-02-12T03:17:07.762Z,3.09
2018-02-12T03:18:09.348Z,3.09
2018-02-12T03:19:07.436Z,3.09
2018-02-12T03:20:07.599Z,3.19
2018-02-12T03:21:07.694Z,3.09
2018-02-12T03:22:07.468Z,3.19
2018-02-12T03:23:07.631Z,3.09
2018-02-12T03:24:07.632Z,3.00
2018-02-12T03:25:07.603Z,3.09
2018-02-12T03:26:07.424Z,3.00
2018-02-12T03:27:07.532Z,3.09
2018-02-12T03:28:07.321Z,3.09
2018-02-12T03:29:07.699Z,3.09
2018-02-12T03:30:07.529Z,3.09
2018-02-12T03:31:09.115Z,3.19
2018-02-12T03:32:09.091Z,3.19
2018-02-12T03:33:07.496Z,3.29
2018-02-12T03:34:07.538Z,3.19
2018-02-12T03:35:07.680Z,3.39
2018-02-12T03:36:07.399Z,3.48
2018-02-12T03:37:09.209Z,3.58
2018-02-12T03:38:07.625Z,3.48
2018-02-12T03:39:07.492Z,3.39
2018-02-12T03:40:07.451Z,3.39
2018-02-12T03:41:10.210Z,3.58
2018-02-12T03:42:07.480Z,3.48
2018-02-12T03:43:07.316Z,3.58
2018-02-12T03:45:07.548Z,3.96
2018-02-12T03:46:09.113Z,3.96
2018-02-12T03:47:07.290Z,3.87
2018-02-12T03:48:07.383Z,4.06
2018-02-12T03:49:08.882Z,4.25
2018-02-12T03:50:07.176Z,4.16
2018-02-12T03:51:07.172Z,4.16
2018-02-12T03:52:09.901Z,4.25
2018-02-12T03:53:07.173Z,4.25
2018-02-12T03:54:07.164Z,4.44
2018-02-12T03:55:07.161Z,4.25
2018-02-12T03:56:07.165Z,4.35
2018-02-12T03:57:07.166Z,4.35
2018-02-12T03:58:07.160Z,4.35
2018-02-12T03:59:07.153Z,4.35
2018-02-12T04:00:07.191Z,4.44
2018-02-12T04:01:07.147Z,4.35
2018-02-12T04:02:07.157Z,4.35
2018-02-12T04:03:07.138Z,4.35
2018-02-12T04:04:07.156Z,4.25
2018-02-12T04:05:07.131Z,4.16
2018-02-12T04:06:07.128Z,4.35
2018-02-12T04:07:08.918Z,4.25
2018-02-12T04:08:07.121Z,4.06
2018-02-12T04:09:08.894Z,4.25
2018-02-12T04:10:07.117Z,4.16
2018-02-12T04:11:07.116Z,3.77
2018-02-12T04:12:07.109Z,3.97
2018-02-12T04:13:07.107Z,3.67
2018-02-12T04:14:07.102Z,3.48
2018-02-12T04:15:07.099Z,3.67
2018-02-12T04:16:07.097Z,3.87
2018-02-12T04:17:07.098Z,3.77
2018-02-12T04:18:07.088Z,3.58
2018-02-12T04:19:07.083Z,3.39
2018-02-12T04:20:07.089Z,3.49
2018-02-12T04:21:07.078Z,3.58
2018-02-12T04:22:07.075Z,3.58
2018-02-12T04:23:07.078Z,3.58
2018-02-12T04:24:07.072Z,3.29
2018-02-12T04:25:07.064Z,3.39
2018-02-12T04:26:07.066Z,3.39
2018-02-12T04:27:07.060Z,3.39
2018-02-12T04:28:07.057Z,3.49
2018-02-12T04:29:07.054Z,3.39
2018-02-12T04:30:07.050Z,3.29
2018-02-12T04:31:07.048Z,3.39
2018-02-12T04:32:07.045Z,3.19
2018-02-12T04:33:07.059Z,3.19
2018-02-12T04:34:07.053Z,3.09
2018-02-12T04:35:07.042Z,3.19
2018-02-12T04:36:07.033Z,3.19
2018-02-12T04:37:07.030Z,3.29
2018-02-12T04:38:07.025Z,3.29
2018-02-12T04:39:07.023Z,3.29
2018-02-12T04:40:07.020Z,3.19
2018-02-12T04:41:07.018Z,3.19
2018-02-12T04:42:07.014Z,3.19
2018-02-12T04:43:07.009Z,3.29
2018-02-12T04:44:07.007Z,3.29
2018-02-12T04:45:07.005Z,3.29
2018-02-12T04:46:07.023Z,3.09
2018-02-12T04:47:07.009Z,3.29
2018-02-12T04:48:06.999Z,3.29
2018-02-12T04:49:06.992Z,3.29
2018-02-12T04:50:09.904Z,3.29
2018-02-12T04:51:06.996Z,3.29
2018-02-12T04:52:06.984Z,3.19
2018-02-12T04:53:06.980Z,3.29
2018-02-12T04:54:06.980Z,3.29
2018-02-12T04:55:06.973Z,3.19
2018-02-12T04:56:06.976Z,3.29
2018-02-12T04:57:06.967Z,3.19
2018-02-12T04:58:06.962Z,3.19
2018-02-12T04:59:06.959Z,3.19
2018-02-12T05:00:06.963Z,3.29
2018-02-12T05:01:06.959Z,3.09
2018-02-12T05:02:06.951Z,3.19
2018-02-12T05:03:06.954Z,3.29
2018-02-12T05:04:06.949Z,3.29
2018-02-12T05:05:09.910Z,3.29
2018-02-12T05:06:06.939Z,3.29
2018-02-12T05:07:06.934Z,3.29
2018-02-12T05:08:06.990Z,3.29
2018-02-12T05:09:06.928Z,3.29
2018-02-12T05:10:06.943Z,3.19
2018-02-12T05:11:06.998Z,3.19
2018-02-12T05:12:06.924Z,3.19
2018-02-12T05:13:07.162Z,3.29
2018-02-12T05:14:06.915Z,3.29
2018-02-12T05:15:06.912Z,3.19
2018-02-12T05:16:06.909Z,3.29
2018-02-12T05:17:06.906Z,3.29
2018-02-12T05:18:06.907Z,3.19
2018-02-12T05:19:06.903Z,3.29
2018-02-12T05:20:06.897Z,3.19
2018-02-12T05:21:06.900Z,3.19
2018-02-12T05:22:06.890Z,3.19
2018-02-12T05:23:06.897Z,3.19
2018-02-12T05:24:06.885Z,3.29
2018-02-12T05:25:06.884Z,3.29
2018-02-12T05:26:06.878Z,3.19
2018-02-12T05:27:06.876Z,3.19
2018-02-12T05:28:06.874Z,3.19
2018-02-12T05:29:06.895Z,3.00
2018-02-12T05:30:06.866Z,2.91
2018-02-12T05:31:06.861Z,3.09
2018-02-12T05:32:06.863Z,3.09
2018-02-12T05:33:06.857Z,3.19
2018-02-12T05:34:06.855Z,3.00
2018-02-12T05:35:06.849Z,3.09
2018-02-12T05:36:06.849Z,3.19
2018-02-12T05:37:06.843Z,3.29
2018-02-12T05:38:06.841Z,3.00
2018-02-12T05:39:06.839Z,3.00
2018-02-12T05:40:06.836Z,3.19
2018-02-12T05:41:06.831Z,3.29
2018-02-12T05:42:06.829Z,3.09
2018-02-12T05:43:06.826Z,3.09
2018-02-12T05:44:06.826Z,3.00
2018-02-12T05:45:06.822Z,3.09
2018-02-12T05:46:06.818Z,3.09
2018-02-12T05:47:06.814Z,3.19
2018-02-12T05:48:06.821Z,3.09
2018-02-12T05:49:06.814Z,3.00
2018-02-12T05:50:06.805Z,3.00
2018-02-12T05:51:06.802Z,3.00
2018-02-12T05:52:06.800Z,3.00
2018-02-12T05:53:06.797Z,3.09
2018-02-12T05:54:06.832Z,3.00
2018-02-12T05:55:06.790Z,3.00
2018-02-12T05:56:06.788Z,3.09
2018-02-12T05:57:06.784Z,3.10
2018-02-12T05:58:06.780Z,3.09
2018-02-12T05:59:06.778Z,3.19
2018-02-12T06:00:06.786Z,3.29
2018-02-12T06:01:06.776Z,3.09
2018-02-12T06:02:06.769Z,3.09
2018-02-12T06:03:06.768Z,3.29
2018-02-12T06:04:06.771Z,3.10
2018-02-12T06:05:06.804Z,3.10
2018-02-12T06:06:06.756Z,3.19
2018-02-12T06:07:06.834Z,2.81
2018-02-12T06:08:06.749Z,2.91
2018-02-12T06:09:06.745Z,3.00
2018-02-12T06:10:06.742Z,2.91
2018-02-12T06:11:06.740Z,2.71
2018-02-12T06:12:06.736Z,2.71
2018-02-12T06:13:06.732Z,2.81
2018-02-12T06:14:06.732Z,2.71
2018-02-12T06:15:06.726Z,2.81
2018-02-12T06:16:06.725Z,3.00
2018-02-12T06:17:06.724Z,3.09
2018-02-12T06:18:06.779Z,3.09
2018-02-12T06:19:06.712Z,3.19
2018-02-12T06:20:06.713Z,3.19
2018-02-12T06:21:06.715Z,3.48
2018-02-12T06:22:06.709Z,3.39
2018-02-12T06:23:06.704Z,3.58
2018-02-12T06:24:06.713Z,3.67
2018-02-12T06:25:06.726Z,3.67
2018-02-12T06:26:06.692Z,3.77
2018-02-12T06:27:06.773Z,3.77
2018-02-12T06:28:06.692Z,3.58
2018-02-12T06:29:06.684Z,3.39
2018-02-12T06:30:06.679Z,3.49
2018-02-12T06:31:06.674Z,3.49
2018-02-12T06:32:06.678Z,3.29
2018-02-12T06:33:06.682Z,3.39
2018-02-12T06:34:06.665Z,3.19
2018-02-12T06:35:06.664Z,3.10
2018-02-12T06:36:06.661Z,3.10
2018-02-12T06:37:06.655Z,3.19
2018-02-12T06:38:06.653Z,3.29
2018-02-12T06:39:06.652Z,3.19
2018-02-12T06:40:06.662Z,3.29
2018-02-12T06:41:06.645Z,3.29
2018-02-12T06:42:06.636Z,3.10
2018-02-12T06:43:06.634Z,3.78
2018-02-12T06:44:06.633Z,3.49
2018-02-12T06:45:06.677Z,3.68
2018-02-12T06:46:06.624Z,4.06
2018-02-12T06:47:06.624Z,3.88
2018-02-12T06:48:06.620Z,4.36
2018-02-12T06:49:06.615Z,4.36
2018-02-12T06:50:06.620Z,4.36
2018-02-12T06:51:06.612Z,4.06
2018-02-12T06:52:06.610Z,4.36
2018-02-12T06:53:06.606Z,4.16
2018-02-12T06:54:06.602Z,4.07
2018-02-12T06:55:06.593Z,3.97
2018-02-12T06:56:06.609Z,3.78
2018-02-12T06:57:08.480Z,4.36
2018-02-12T06:58:06.587Z,4.06
2018-02-12T06:59:06.605Z,4.26
2018-02-12T07:00:06.579Z,4.26
2018-02-12T07:01:06.581Z,4.06
2018-02-12T07:02:06.585Z,4.26
2018-02-12T07:03:06.578Z,4.06
2018-02-12T07:04:06.644Z,4.06
2018-02-12T07:05:06.559Z,4.06
2018-02-12T07:06:06.556Z,3.97
2018-02-12T07:07:06.555Z,3.68
2018-02-12T07:08:06.561Z,3.88
2018-02-12T07:09:06.567Z,3.97
2018-02-12T07:10:06.543Z,3.68
2018-02-12T07:11:06.542Z,3.58
2018-02-12T07:12:06.538Z,3.68
2018-02-12T07:13:06.535Z,3.58
2018-02-12T07:14:07.473Z,3.68
2018-02-12T07:15:06.526Z,3.58
2018-02-12T07:16:06.543Z,3.58
2018-02-12T07:17:06.524Z,3.58
2018-02-12T07:18:06.512Z,3.58
2018-02-12T07:19:06.527Z,3.58
2018-02-12T07:20:06.509Z,3.49
2018-02-12T07:21:06.506Z,3.49
2018-02-12T07:22:06.508Z,3.58
2018-02-12T07:23:06.493Z,3.58
2018-02-12T07:24:06.492Z,3.30
2018-02-12T07:25:06.490Z,3.49
2018-02-12T07:26:06.495Z,3.39
2018-02-12T07:27:06.497Z,3.20
2018-02-12T07:28:06.478Z,3.30
2018-02-12T07:29:06.475Z,3.20
2018-02-12T07:30:06.471Z,3.39
2018-02-12T07:31:06.467Z,3.20
2018-02-12T07:32:06.465Z,3.39
2018-02-12T07:33:06.471Z,3.20
2018-02-12T07:34:06.461Z,3.30
2018-02-12T07:35:06.495Z,3.30
2018-02-12T07:36:06.471Z,3.49
2018-02-12T07:37:06.478Z,3.39
2018-02-12T07:38:06.483Z,3.39
2018-02-12T07:39:06.471Z,3.39
2018-02-12T07:40:06.477Z,3.30
2018-02-12T07:41:07.428Z,3.39
2018-02-12T07:42:06.524Z,3.58
2018-02-12T07:43:06.461Z,3.58
2018-02-12T07:44:06.422Z,3.58
2018-02-12T07:45:06.415Z,3.58
2018-02-12T07:46:06.412Z,3.49
2018-02-12T07:47:06.411Z,3.49
2018-02-12T07:48:06.441Z,3.78
2018-02-12T07:49:06.408Z,3.68
2018-02-12T07:50:06.400Z,3.58
2018-02-12T07:51:06.396Z,3.58
2018-02-12T07:52:06.393Z,3.68
2018-02-12T07:53:06.386Z,3.97
2018-02-12T07:54:06.431Z,3.97
2018-02-12T07:55:06.389Z,4.07
2018-02-12T07:56:06.501Z,4.36
2018-02-12T07:57:08.985Z,4.07
2018-02-12T07:58:06.378Z,4.26
2018-02-12T07:59:06.365Z,4.36
2018-02-12T08:00:06.576Z,4.36
2018-02-12T08:01:13.002Z,4.36
2018-02-12T08:02:08.138Z,4.16
2018-02-12T08:03:06.368Z,4.26
2018-02-12T08:04:06.427Z,4.46
2018-02-12T08:05:06.379Z,4.26
2018-02-12T08:06:06.565Z,4.36
2018-02-12T08:07:09.087Z,4.36
2018-02-12T08:08:06.358Z,4.16
2018-02-12T08:09:09.080Z,4.07
2018-02-12T08:10:06.858Z,4.07
2018-02-12T08:12:11.853Z,4.07
2018-02-12T08:13:09.125Z,3.88
2018-02-12T08:14:06.396Z,3.88
2018-02-12T08:15:07.640Z,3.88
2018-02-12T08:16:06.389Z,4.26
2018-02-12T08:17:07.189Z,3.88
2018-02-12T08:18:08.024Z,4.16
2018-02-12T08:19:06.305Z,3.97
2018-02-12T08:20:06.316Z,4.16
2018-02-12T08:21:06.692Z,4.16
2018-02-12T08:22:06.722Z,3.78
2018-02-12T08:23:06.476Z,3.97
2018-02-12T08:25:06.287Z,4.36
2018-02-12T08:26:06.546Z,4.07
2018-02-12T08:27:06.424Z,4.07
2018-02-12T08:28:06.449Z,4.07
2018-02-12T08:29:06.905Z,4.26
2018-02-12T08:30:06.491Z,4.26
2018-02-12T08:31:06.457Z,4.26
2018-02-12T08:32:06.288Z,4.16
2018-02-12T08:33:08.216Z,4.07
2018-02-12T08:34:06.728Z,4.16
2018-02-12T08:35:06.603Z,4.16
2018-02-12T08:36:06.888Z,4.16
2018-02-12T08:37:06.277Z,4.26
2018-02-12T08:38:09.317Z,4.36
2018-02-12T08:39:06.421Z,4.36
2018-02-12T08:41:06.500Z,4.46
2018-02-12T08:42:10.531Z,4.36
2018-02-12T08:43:07.607Z,4.46
2018-02-12T08:44:06.328Z,4.36
2018-02-12T08:45:06.978Z,4.16
2018-02-12T08:46:06.426Z,4.26
2018-02-12T08:47:06.224Z,4.17
2018-02-12T08:49:06.378Z,4.16
2018-02-12T08:50:06.338Z,4.46
2018-02-12T08:53:07.642Z,4.46
2018-02-12T08:54:17.153Z,4.36
2018-02-12T08:57:07.433Z,4.36
2018-02-12T09:00:07.871Z,4.46
2018-02-12T09:01:29.632Z,4.36
2018-02-12T09:04:07.620Z,4.55
2018-02-12T09:05:08.690Z,4.55
2018-02-12T09:06:06.269Z,4.26
2018-02-12T09:07:27.249Z,4.46
2018-02-12T09:08:12.813Z,4.36
2018-02-12T09:09:07.276Z,4.46
2018-02-12T09:10:09.782Z,4.36
2018-02-12T09:13:31.416Z,4.75
2018-02-12T09:14:06.797Z,4.65
2018-02-12T09:15:06.247Z,5.04
2018-02-12T09:16:06.237Z,4.85
2018-02-12T09:17:06.685Z,4.65
2018-02-12T09:18:14.915Z,4.94
2018-02-12T09:19:31.735Z,4.85
2018-02-12T09:22:06.268Z,4.85
2018-02-12T09:23:06.338Z,4.94
2018-02-12T09:25:27.161Z,4.85
2018-02-12T09:26:06.986Z,4.75
2018-02-12T09:27:06.680Z,4.85
2018-02-12T09:28:07.404Z,4.85
2018-02-12T09:29:06.177Z,4.85
2018-02-12T09:30:06.131Z,4.75
2018-02-12T09:31:27.152Z,4.94
2018-02-12T09:32:06.651Z,4.94
2018-02-12T09:33:06.641Z,4.94
2018-02-12T09:35:07.649Z,4.85
2018-02-12T09:36:06.659Z,4.85
2018-02-12T09:37:27.112Z,4.94
2018-02-12T09:38:06.101Z,4.85
2018-02-12T09:39:06.141Z,5.23
2018-02-12T09:40:06.109Z,5.33
2018-02-12T09:41:06.217Z,5.04
2018-02-12T09:42:06.100Z,4.94
2018-02-12T09:43:27.105Z,5.04
2018-02-12T09:44:09.771Z,5.23
2018-02-12T09:45:06.205Z,5.43
2018-02-12T09:46:06.101Z,5.43
2018-02-12T09:47:06.094Z,5.04
2018-02-12T09:48:06.786Z,5.13
2018-02-12T09:49:27.075Z,5.23
2018-02-12T09:50:06.065Z,5.13
2018-02-12T09:51:06.693Z,5.13
2018-02-12T09:52:06.739Z,5.04
2018-02-12T09:53:06.751Z,5.43
2018-02-12T09:54:06.091Z,5.43
2018-02-12T09:55:27.061Z,5.52
2018-02-12T09:56:06.798Z,5.62
2018-02-12T09:57:06.041Z,5.33
2018-02-12T09:58:06.081Z,5.33
2018-02-12T09:59:06.847Z,5.43
2018-02-12T10:00:07.822Z,5.24
2018-02-12T10:01:27.166Z,5.24
2018-02-12T10:02:06.412Z,5.43
2018-02-12T10:03:06.025Z,5.24
2018-02-12T10:04:06.825Z,5.24
2018-02-12T10:06:06.852Z,5.04
2018-02-12T10:07:30.330Z,5.23
2018-02-12T10:08:07.107Z,5.23
2018-02-12T10:09:06.765Z,5.13
2018-02-12T10:10:07.213Z,5.52
2018-02-12T10:11:10.167Z,5.23
2018-02-12T10:13:31.645Z,5.71
2018-02-12T11:06:26.967Z,5.43
2018-02-12T11:07:33.752Z,5.43
2018-02-12T11:08:25.710Z,5.13
2018-02-12T11:09:31.293Z,5.43
2018-02-12T11:10:19.198Z,5.52
2018-02-12T11:11:20.694Z,5.23
2018-02-12T11:12:19.023Z,5.62
2018-02-12T11:13:20.726Z,5.52
2018-02-12T11:14:18.955Z,5.52
2018-02-12T11:15:18.895Z,5.43
2018-02-12T11:16:18.890Z,5.04
2018-02-12T11:17:18.910Z,4.94
2018-02-12T11:18:18.958Z,5.13
2018-02-12T11:19:18.898Z,5.04
2018-02-12T11:20:18.887Z,5.13
2018-02-12T11:21:18.897Z,5.04
2018-02-12T11:22:18.876Z,5.23
2018-02-12T11:23:18.869Z,5.33
2018-02-12T11:24:18.927Z,5.13
2018-02-12T11:25:19.357Z,5.13
2018-02-12T11:26:18.960Z,5.04
2018-02-12T11:27:18.974Z,5.13
2018-02-12T11:28:18.972Z,5.23
2018-02-12T11:29:18.855Z,5.13
2018-02-12T11:30:18.939Z,5.13
2018-02-12T11:31:18.924Z,5.04
2018-02-12T11:32:18.854Z,5.04
2018-02-12T11:33:20.683Z,5.04
2018-02-12T11:34:18.838Z,4.94
2018-02-12T11:35:18.872Z,5.52
2018-02-12T11:36:18.833Z,5.43
2018-02-12T11:37:18.868Z,5.43
2018-02-12T11:38:18.827Z,5.23
2018-02-12T11:39:18.878Z,5.52
2018-02-12T11:40:20.068Z,5.62
2018-02-12T11:41:18.860Z,5.62
2018-02-12T11:42:18.838Z,5.62
2018-02-12T11:43:19.037Z,5.23
2018-02-12T11:44:18.858Z,5.23
2018-02-12T11:45:18.808Z,5.33
2018-02-12T11:46:19.734Z,5.43
2018-02-12T11:47:18.799Z,5.43
2018-02-12T11:48:18.798Z,5.43
2018-02-12T11:49:18.795Z,5.43
2018-02-12T11:50:18.792Z,5.43
2018-02-12T11:51:18.788Z,5.43
2018-02-12T11:52:18.785Z,5.33
2018-02-12T11:53:18.783Z,5.52
2018-02-12T11:54:18.779Z,5.43
2018-02-12T11:55:18.779Z,5.52
2018-02-12T11:56:18.788Z,5.72
2018-02-12T11:57:18.776Z,5.62
2018-02-12T11:58:18.787Z,5.62
2018-02-12T11:59:20.679Z,5.62
2018-02-12T12:00:18.771Z,5.43
2018-02-12T12:01:18.760Z,5.33
2018-02-12T12:02:18.770Z,5.43
2018-02-12T12:03:18.777Z,5.43
2018-02-12T12:04:18.757Z,5.52
2018-02-12T12:05:18.751Z,5.04
2018-02-12T12:06:18.748Z,5.14
2018-02-12T12:07:18.743Z,5.24
2018-02-12T12:08:18.772Z,5.14
2018-02-12T12:09:18.745Z,5.14
2018-02-12T12:10:18.753Z,5.24
2018-02-12T12:11:18.786Z,5.04
2018-02-12T12:12:18.738Z,5.04
2018-02-12T12:13:18.751Z,5.04
2018-02-12T12:14:18.744Z,5.14
2018-02-12T12:15:18.724Z,5.14
2018-02-12T12:16:18.729Z,5.24
2018-02-12T12:17:18.727Z,5.14
2018-02-12T12:18:18.724Z,5.14
2018-02-12T12:19:18.720Z,4.85
2018-02-12T12:20:18.717Z,4.85
2018-02-12T12:21:18.716Z,4.85
2018-02-12T12:22:18.714Z,4.94
2018-02-12T12:23:19.707Z,5.14
2018-02-12T12:24:20.698Z,4.85
2018-02-12T12:25:18.699Z,4.85
2018-02-12T12:26:18.696Z,4.85
2018-02-12T12:27:18.702Z,4.75
2018-02-12T12:28:18.695Z,4.94
2018-02-12T12:29:18.691Z,4.94
2018-02-12T12:30:18.692Z,4.94
2018-02-12T12:31:18.684Z,4.75
2018-02-12T12:32:18.710Z,4.94
2018-02-12T12:33:18.680Z,4.85
2018-02-12T12:34:18.824Z,4.85
2018-02-12T12:35:18.676Z,4.94
2018-02-12T12:36:18.673Z,5.14
2018-02-12T12:37:18.679Z,4.85
2018-02-12T12:38:18.672Z,4.85
2018-02-12T12:39:18.674Z,4.94
2018-02-12T12:40:18.664Z,4.85
2018-02-12T12:41:18.663Z,4.75
2018-02-12T12:42:18.660Z,4.85
2018-02-12T12:43:18.657Z,4.94
2018-02-12T12:44:18.655Z,4.94
2018-02-12T12:45:18.657Z,4.94
2018-02-12T12:46:18.651Z,4.85
2018-02-12T12:47:18.654Z,4.94
2018-02-12T12:48:18.698Z,4.94
2018-02-12T12:49:18.671Z,4.94
2018-02-12T12:50:18.771Z,4.85
2018-02-12T12:51:18.726Z,4.94
2018-02-12T12:52:18.669Z,4.94
2018-02-12T12:53:18.664Z,4.85
2018-02-12T12:54:18.636Z,4.85
2018-02-12T12:55:18.643Z,4.94
2018-02-12T12:56:20.244Z,4.85
2018-02-12T12:57:18.648Z,4.94
2018-02-12T12:58:18.626Z,5.14
2018-02-12T12:59:18.625Z,4.94
2018-02-12T13:00:18.621Z,5.04
2018-02-12T13:01:18.621Z,4.85
2018-02-12T13:02:18.617Z,4.85
2018-02-12T13:03:18.615Z,5.33
2018-02-12T13:04:18.614Z,5.33
2018-02-12T13:05:18.611Z,5.14
2018-02-12T13:06:18.612Z,5.14
2018-02-12T13:07:18.607Z,5.33
2018-02-12T13:08:18.604Z,5.14
2018-02-12T13:09:18.603Z,4.85
2018-02-12T13:10:18.618Z,4.85
2018-02-12T13:11:18.598Z,5.14
2018-02-12T13:12:18.595Z,5.14
2018-02-12T13:13:18.597Z,5.04
2018-02-12T13:14:18.650Z,5.04
2018-02-12T13:15:18.589Z,4.85
2018-02-12T13:16:18.679Z,4.94
2018-02-12T13:17:18.587Z,4.85
2018-02-12T13:18:18.598Z,5.14
2018-02-12T13:19:18.611Z,4.75
2018-02-12T13:20:18.597Z,4.94
2018-02-12T13:21:18.635Z,4.85
2018-02-12T13:22:18.577Z,4.94
2018-02-12T13:23:18.605Z,4.75
2018-02-12T13:24:18.608Z,4.94
2018-02-12T13:25:18.565Z,4.94
2018-02-12T13:26:18.566Z,5.14
2018-02-12T13:27:18.561Z,4.75
2018-02-12T13:28:18.558Z,4.85
2018-02-12T13:29:18.559Z,4.75
2018-02-12T13:30:18.554Z,4.66
2018-02-12T13:31:18.552Z,4.56
2018-02-12T13:32:18.552Z,4.85
2018-02-12T13:33:18.550Z,4.75
2018-02-12T13:34:18.547Z,4.75
2018-02-12T13:35:18.542Z,4.75
2018-02-12T13:36:18.540Z,4.27
2018-02-12T13:37:18.540Z,4.85
2018-02-12T13:38:18.536Z,4.27
2018-02-12T13:39:18.533Z,4.75
2018-02-12T13:40:18.532Z,4.27
2018-02-12T13:41:18.529Z,4.17
2018-02-12T13:42:18.527Z,4.17
2018-02-12T13:43:18.524Z,4.17
2018-02-12T13:44:18.524Z,4.27
2018-02-12T13:45:18.520Z,4.27
2018-02-12T13:46:18.519Z,4.75
2018-02-12T13:47:18.516Z,4.17
2018-02-12T13:48:18.514Z,4.27
2018-02-12T13:49:18.512Z,4.27
2018-02-12T13:50:18.510Z,4.36
2018-02-12T13:51:18.508Z,4.27
2018-02-12T13:52:18.505Z,4.27
2018-02-12T13:53:18.503Z,4.17
2018-02-12T13:54:18.507Z,4.27
2018-02-12T13:55:18.499Z,4.27
2018-02-12T13:56:18.497Z,4.27
2018-02-12T13:57:18.497Z,4.27
2018-02-12T13:58:18.493Z,4.27
2018-02-12T13:59:18.493Z,4.27
2018-02-12T14:00:18.488Z,4.75
2018-02-12T14:01:18.486Z,4.75
2018-02-12T14:02:18.485Z,4.75
2018-02-12T14:03:18.481Z,4.75
2018-02-12T14:04:18.479Z,4.66
2018-02-12T14:05:18.477Z,4.27
2018-02-12T14:06:18.476Z,4.27
2018-02-12T14:07:18.472Z,4.27
2018-02-12T14:08:18.470Z,4.46
2018-02-12T14:09:18.472Z,4.94
2018-02-12T14:10:18.470Z,4.85
2018-02-12T14:11:18.468Z,4.85
2018-02-12T14:12:18.462Z,4.94
2018-02-12T14:13:18.461Z,4.85
2018-02-12T14:14:18.460Z,5.04
2018-02-12T14:15:18.455Z,4.75
2018-02-12T14:16:18.453Z,4.94
2018-02-12T14:17:18.451Z,4.65
2018-02-12T14:18:21.233Z,4.85
2018-02-12T14:19:18.445Z,5.04
2018-02-12T14:20:18.470Z,4.75
2018-02-12T14:21:18.442Z,4.94
2018-02-12T14:22:18.440Z,5.04
2018-02-12T14:23:18.437Z,4.85
2018-02-12T14:24:18.435Z,5.04
2018-02-12T14:25:18.434Z,5.14
2018-02-12T14:26:18.432Z,4.75
2018-02-12T14:27:18.428Z,5.14
2018-02-12T14:28:18.426Z,4.94
2018-02-12T14:29:18.423Z,5.14
2018-02-12T14:30:18.421Z,4.94
2018-02-12T14:31:18.419Z,4.85
2018-02-12T14:32:18.418Z,4.85
2018-02-12T14:33:18.414Z,4.85
2018-02-12T14:34:18.413Z,4.85
2018-02-12T14:35:18.411Z,4.85
2018-02-12T14:36:18.409Z,4.85
2018-02-12T14:37:18.405Z,4.85
2018-02-12T14:38:18.404Z,4.85
2018-02-12T14:39:18.400Z,4.94
2018-02-12T14:40:18.400Z,4.94